createdAt,value
2023-01-07T00:02:04.658Z,8.60
2023-01-07T00:04:31.869Z,8.60
2023-01-07T00:06:59.512Z,8.60
2023-01-07T00:09:26.692Z,8.60
2023-01-07T00:11:53.827Z,8.60
2023-01-07T00:14:21.006Z,8.60
2023-01-07T00:16:48.254Z,8.60
2023-01-07T00:19:16.155Z,8.50
2023-01-07T00:21:43.676Z,8.50
2023-01-07T00:24:11.682Z,8.50
2023-01-07T00:26:39.967Z,8.50
2023-01-07T00:29:08.300Z,8.50
2023-01-07T00:31:37.937Z,8.50
2023-01-07T00:34:05.507Z,8.40
2023-01-07T00:36:38.826Z,8.50
2023-01-07T00:39:10.810Z,8.50
2023-01-07T00:41:38.212Z,8.50
2023-01-07T00:44:06.572Z,8.40
2023-01-07T00:46:34.292Z,8.50
2023-01-07T00:49:02.133Z,8.40
2023-01-07T00:51:29.557Z,8.40
2023-01-07T00:53:56.729Z,8.40
2023-01-07T00:56:23.985Z,8.30
2023-01-07T00:58:51.134Z,8.40
2023-01-07T01:01:19.418Z,8.40
2023-01-07T01:03:46.716Z,8.40
2023-01-07T01:06:15.772Z,8.40
2023-01-07T01:08:45.164Z,8.40
2023-01-07T01:11:14.407Z,8.50
2023-01-07T01:13:42.715Z,8.50
2023-01-07T01:16:13.242Z,8.40
2023-01-07T01:18:40.934Z,8.40
2023-01-07T01:21:11.164Z,8.40
2023-01-07T01:23:38.863Z,8.40
2023-01-07T01:26:24.433Z,8.40
2023-01-07T01:28:51.701Z,8.40
2023-01-07T01:31:23.363Z,8.40
2023-01-07T01:33:56.427Z,8.40
2023-01-07T01:36:24.852Z,8.40
2023-01-07T01:38:54.229Z,8.30
2023-01-07T01:41:22.046Z,8.40
2023-01-07T01:43:52.234Z,8.40
2023-01-07T01:46:33.519Z,8.40
2023-01-07T01:49:07.996Z,8.40
2023-01-07T01:51:40.758Z,8.30
2023-01-07T01:54:12.048Z,8.30
2023-01-07T01:56:45.153Z,8.30
2023-01-07T01:59:20.677Z,8.20
2023-01-07T02:12:35.427Z,8.30
2023-01-07T02:15:13.284Z,8.30
2023-01-07T02:17:52.519Z,8.30
2023-01-07T02:20:33.894Z,8.30
2023-01-07T02:23:21.113Z,8.30
2023-01-07T02:26:09.013Z,8.20
2023-01-07T02:29:04.265Z,8.20
2023-01-07T02:32:12.983Z,8.20
2023-01-07T02:34:51.464Z,8.30
2023-01-07T02:37:26.877Z,8.20
2023-01-07T02:40:23.577Z,8.10
2023-01-07T02:43:20.977Z,8.20
2023-01-07T02:46:03.433Z,8.20
2023-01-07T02:48:33.469Z,8.30
2023-01-07T02:51:00.657Z,8.30
2023-01-07T02:53:27.880Z,8.30
2023-01-07T02:56:17.520Z,8.30
2023-01-07T02:59:09.943Z,8.20
2023-01-07T03:01:46.652Z,8.20
2023-01-07T03:04:40.188Z,8.20
2023-01-07T03:07:25.050Z,8.30
2023-01-07T03:10:08.221Z,8.20
2023-01-07T03:12:47.060Z,8.20
2023-01-07T03:15:32.002Z,8.10
2023-01-07T03:18:04.820Z,8.10
2023-01-07T03:20:35.575Z,8.10
2023-01-07T03:23:06.410Z,8.10
2023-01-07T03:25:37.908Z,8.10
2023-01-07T03:28:07.061Z,8.10
2023-01-07T03:30:35.221Z,8.20
2023-01-07T03:33:11.782Z,8.10
2023-01-07T03:35:42.716Z,8.10
2023-01-07T03:38:11.985Z,8.20
2023-01-07T03:40:39.838Z,8.20
2023-01-07T03:43:19.167Z,8.10
2023-01-07T03:45:48.789Z,8.10
2023-01-07T03:48:17.231Z,8.10
2023-01-07T03:50:44.413Z,8.10
2023-01-07T03:53:11.681Z,8.00
2023-01-07T03:55:47.144Z,8.00
2023-01-07T03:58:14.411Z,8.00
2023-01-07T04:00:41.613Z,7.90
2023-01-07T04:03:16.976Z,8.00
2023-01-07T04:05:46.813Z,7.80
2023-01-07T04:08:14.318Z,7.80
2023-01-07T04:10:42.760Z,7.80
2023-01-07T04:13:11.698Z,7.80
2023-01-07T04:15:41.068Z,7.80
2023-01-07T04:18:08.688Z,7.80
2023-01-07T04:20:36.048Z,7.80
2023-01-07T04:23:03.287Z,7.80
2023-01-07T04:25:32.431Z,7.80
2023-01-07T04:28:02.523Z,7.80
2023-01-07T04:30:30.181Z,7.80
2023-01-07T04:32:57.368Z,7.80
2023-01-07T04:35:25.010Z,7.80
2023-01-07T04:37:52.495Z,7.80
2023-01-07T04:40:19.691Z,7.80
2023-01-07T04:42:48.142Z,7.80
2023-01-07T04:45:15.677Z,7.70
2023-01-07T04:47:42.892Z,7.70
2023-01-07T04:50:10.511Z,7.70
2023-01-07T04:52:37.835Z,7.60
2023-01-07T04:55:06.491Z,7.60
2023-01-07T04:57:33.905Z,7.50
2023-01-07T05:00:01.355Z,7.60
2023-01-07T05:02:29.048Z,7.40
2023-01-07T05:04:56.364Z,7.40
2023-01-07T05:07:23.788Z,7.30
2023-01-07T05:09:51.746Z,7.30
2023-01-07T05:12:19.872Z,7.20
2023-01-07T05:14:48.045Z,7.10
2023-01-07T05:17:15.447Z,7.10
2023-01-07T05:19:43.715Z,6.90
2023-01-07T05:22:12.929Z,6.90
2023-01-07T05:24:41.748Z,6.80
2023-01-07T05:27:09.006Z,6.80
2023-01-07T05:29:38.276Z,6.70
2023-01-07T05:32:08.240Z,6.60
2023-01-07T05:34:38.010Z,6.60
2023-01-07T05:37:05.293Z,6.60
2023-01-07T05:39:34.942Z,6.60
2023-01-07T05:42:04.560Z,6.60
2023-01-07T05:44:31.847Z,6.40
2023-01-07T05:46:59.064Z,6.30
2023-01-07T05:49:26.452Z,6.20
2023-01-07T05:51:53.653Z,6.10
2023-01-07T05:54:20.902Z,6.10
2023-01-07T05:56:48.107Z,5.90
2023-01-07T05:59:15.431Z,5.90
2023-01-07T06:01:42.609Z,5.70
2023-01-07T06:04:10.059Z,5.70
2023-01-07T06:06:38.017Z,5.70
2023-01-07T06:09:05.440Z,5.60
2023-01-07T06:11:32.875Z,5.60
2023-01-07T06:14:00.080Z,5.50
2023-01-07T06:16:27.349Z,5.50
2023-01-07T06:18:54.508Z,5.40
2023-01-07T06:21:21.645Z,5.30
2023-01-07T06:23:48.788Z,5.30
2023-01-07T06:26:15.961Z,5.20
2023-01-07T06:28:43.142Z,5.10
2023-01-07T06:31:11.310Z,5.10
2023-01-07T06:33:40.368Z,5.00
2023-01-07T06:36:08.193Z,5.00
2023-01-07T06:38:35.967Z,4.90
2023-01-07T06:41:03.184Z,4.90
2023-01-07T06:43:30.548Z,4.80
2023-01-07T06:45:58.222Z,4.80
2023-01-07T06:48:25.426Z,4.70
2023-01-07T06:50:52.649Z,4.70
2023-01-07T06:53:20.084Z,4.70
2023-01-07T06:55:51.410Z,4.70
2023-01-07T06:58:19.128Z,4.70
2023-01-07T07:00:46.354Z,4.60
2023-01-07T07:03:13.634Z,4.60
2023-01-07T07:05:40.950Z,4.50
2023-01-07T07:08:08.187Z,4.40
2023-01-07T07:10:35.616Z,4.40
2023-01-07T07:13:03.052Z,4.40
2023-01-07T07:15:30.264Z,4.40
2023-01-07T07:17:57.423Z,4.40
2023-01-07T07:20:24.691Z,4.40
2023-01-07T07:22:51.862Z,4.30
2023-01-07T07:25:19.231Z,4.30
2023-01-07T07:27:46.811Z,4.30
2023-01-07T07:30:15.439Z,4.20
2023-01-07T07:32:42.841Z,4.10
2023-01-07T07:35:10.994Z,4.10
2023-01-07T07:37:38.918Z,4.10
2023-01-07T07:40:07.462Z,4.10
2023-01-07T07:43:09.490Z,4.10
2023-01-07T07:45:22.000Z,4.10
2023-01-07T07:47:49.205Z,4.10
2023-01-07T07:50:16.492Z,4.20
2023-01-07T07:52:43.893Z,4.20
2023-01-07T07:55:20.017Z,4.20
2023-01-07T07:57:54.546Z,4.20
2023-01-07T08:00:22.069Z,4.20
2023-01-07T08:02:49.345Z,4.30
2023-01-07T08:05:16.668Z,4.30
2023-01-07T08:07:43.911Z,4.30
2023-01-07T08:10:11.085Z,4.40
2023-01-07T08:12:38.928Z,4.40
2023-01-07T08:15:07.476Z,4.50
2023-01-07T08:17:36.219Z,4.60
2023-01-07T08:20:04.970Z,4.60
2023-01-07T08:22:33.289Z,4.70
2023-01-07T08:25:00.734Z,4.80
2023-01-07T08:27:28.866Z,4.80
2023-01-07T08:29:56.829Z,4.90
2023-01-07T08:32:24.113Z,5.00
2023-01-07T08:34:51.341Z,5.00
2023-01-07T08:37:18.631Z,5.10
2023-01-07T08:39:45.811Z,5.20
2023-01-07T08:42:12.977Z,5.30
2023-01-07T08:44:40.257Z,5.30
2023-01-07T08:47:07.442Z,5.40
2023-01-07T08:49:34.643Z,5.40
2023-01-07T08:52:01.830Z,5.40
2023-01-07T08:54:28.973Z,5.40
2023-01-07T08:56:56.220Z,5.50
2023-01-07T08:59:23.391Z,5.50
2023-01-07T09:01:50.617Z,5.60
2023-01-07T09:04:17.930Z,5.60
2023-01-07T09:06:45.165Z,5.70
2023-01-07T09:09:14.300Z,5.80
2023-01-07T09:11:43.895Z,5.80
2023-01-07T09:14:11.089Z,5.90
2023-01-07T09:16:38.294Z,6.00
2023-01-07T09:19:05.446Z,6.00
2023-01-07T09:21:32.630Z,6.10
2023-01-07T09:24:00.127Z,6.10
2023-01-07T09:26:27.415Z,6.20
2023-01-07T09:28:54.671Z,6.20
2023-01-07T09:31:22.506Z,6.30
2023-01-07T09:33:51.856Z,6.30
2023-01-07T09:36:19.019Z,6.40
2023-01-07T09:38:46.213Z,6.50
2023-01-07T09:41:43.405Z,6.50
2023-01-07T09:44:36.158Z,6.60
2023-01-07T09:47:05.074Z,6.70
2023-01-07T09:49:33.233Z,6.70
2023-01-07T09:52:23.901Z,6.70
2023-01-07T09:54:58.510Z,6.80
2023-01-07T09:57:27.678Z,6.90
2023-01-07T09:59:55.397Z,6.90
2023-01-07T10:02:34.448Z,7.00
2023-01-07T10:05:13.586Z,7.00
2023-01-07T10:08:30.424Z,7.20
2023-01-07T10:11:22.269Z,7.30
2023-01-07T10:14:27.252Z,7.30
2023-01-07T10:17:03.337Z,7.40
2023-01-07T10:19:36.237Z,7.50
2023-01-07T10:22:15.634Z,7.50
2023-01-07T10:24:48.440Z,7.60
2023-01-07T10:27:22.054Z,7.70
2023-01-07T10:29:54.566Z,7.80
2023-01-07T10:32:24.329Z,7.80
2023-01-07T10:34:55.683Z,7.80
2023-01-07T10:37:40.484Z,8.00
2023-01-07T10:40:16.894Z,8.10
2023-01-07T10:42:53.897Z,8.10
2023-01-07T10:45:39.251Z,8.20
2023-01-07T10:48:27.673Z,8.30
2023-01-07T10:51:27.868Z,8.30
2023-01-07T10:54:09.787Z,8.30
2023-01-07T10:56:45.588Z,8.30
2023-01-07T10:59:17.954Z,8.50
2023-01-07T11:01:51.582Z,8.40
2023-01-07T11:04:18.908Z,8.40
2023-01-07T11:07:07.263Z,8.40
2023-01-07T11:09:41.771Z,8.40
2023-01-07T11:12:25.525Z,8.40
2023-01-07T11:14:54.776Z,8.40
2023-01-07T11:17:42.411Z,8.40
2023-01-07T11:20:09.971Z,8.50
2023-01-07T11:22:38.860Z,8.50
2023-01-07T11:25:41.383Z,8.50
2023-01-07T11:28:18.311Z,8.50
2023-01-07T11:30:55.019Z,8.60
2023-01-07T11:34:01.755Z,8.60
2023-01-07T11:36:39.781Z,8.70
2023-01-07T11:39:17.918Z,8.70
2023-01-07T11:42:40.318Z,8.80
2023-01-07T11:45:18.426Z,8.80
2023-01-07T11:48:00.684Z,8.90
2023-01-07T11:50:35.714Z,8.90
2023-01-07T11:53:31.313Z,8.90
2023-01-07T11:56:07.627Z,9.00
2023-01-07T11:58:41.031Z,9.00
2023-01-07T12:01:08.217Z,9.00
2023-01-07T12:03:36.810Z,9.00
2023-01-07T12:06:14.289Z,9.10
2023-01-07T12:08:49.704Z,9.10
2023-01-07T12:11:17.507Z,9.20
2023-01-07T12:13:49.927Z,9.30
2023-01-07T12:16:17.569Z,9.30
2023-01-07T12:19:31.425Z,9.30
2023-01-07T12:22:06.128Z,9.40
2023-01-07T12:24:54.897Z,9.30
2023-01-07T12:27:35.226Z,9.50
2023-01-07T12:30:21.259Z,9.60
2023-01-07T12:33:16.693Z,9.50
2023-01-07T12:35:45.567Z,9.50
2023-01-07T12:38:42.912Z,9.60
2023-01-07T12:41:41.314Z,9.60
2023-01-07T12:44:21.250Z,9.60
2023-01-07T12:47:31.481Z,9.60
2023-01-07T12:49:52.718Z,9.60
2023-01-07T12:52:46.985Z,9.60
2023-01-07T12:55:22.147Z,9.60
2023-01-07T12:58:15.094Z,9.70
2023-01-07T13:00:57.226Z,9.70
2023-01-07T13:03:32.220Z,9.70
2023-01-07T13:06:14.406Z,9.80
2023-01-07T13:08:47.446Z,9.90
2023-01-07T13:11:43.245Z,9.90
2023-01-07T13:14:21.793Z,10.00
2023-01-07T13:16:49.334Z,10.00
2023-01-07T13:19:16.860Z,10.00
2023-01-07T13:21:48.251Z,10.00
2023-01-07T13:25:03.524Z,10.10
2023-01-07T13:27:59.709Z,10.10
2023-01-07T13:30:51.215Z,10.10
2023-01-07T13:33:27.464Z,10.00
2023-01-07T13:36:06.950Z,10.00
2023-01-07T13:39:01.592Z,10.00
2023-01-07T13:41:37.923Z,10.00
2023-01-07T13:44:43.242Z,10.10
2023-01-07T13:47:14.411Z,10.10
2023-01-07T13:49:57.004Z,10.10
2023-01-07T13:52:30.464Z,10.10
2023-01-07T13:55:02.836Z,10.10
2023-01-07T13:57:30.041Z,10.20
2023-01-07T14:00:27.229Z,10.10
2023-01-07T14:02:56.949Z,10.10
2023-01-07T14:05:29.208Z,10.20
2023-01-07T14:08:04.014Z,10.10
2023-01-07T14:10:34.246Z,10.10
2023-01-07T14:13:14.085Z,10.10
2023-01-07T14:15:45.528Z,10.10
2023-01-07T14:18:31.214Z,10.20
2023-01-07T14:21:21.398Z,10.20
2023-01-07T14:24:01.822Z,10.20
2023-01-07T14:27:03.135Z,10.20
2023-01-07T14:29:40.991Z,10.20
2023-01-07T14:32:36.871Z,10.20
2023-01-07T14:35:23.889Z,10.20
2023-01-07T14:37:51.050Z,10.20
2023-01-07T14:40:32.346Z,10.10
2023-01-07T14:43:01.356Z,10.10
2023-01-07T14:45:37.831Z,10.10
2023-01-07T14:48:07.728Z,10.10
2023-01-07T14:51:10.653Z,10.00
2023-01-07T14:54:05.482Z,10.00
2023-01-07T14:56:59.757Z,10.00
2023-01-07T15:00:10.251Z,9.90
2023-01-07T15:03:12.818Z,9.90
2023-01-07T15:05:51.987Z,9.80
2023-01-07T15:08:40.431Z,9.80
2023-01-07T15:11:33.457Z,9.70
2023-01-07T15:14:23.573Z,9.60
2023-01-07T15:16:53.348Z,9.70
2023-01-07T15:19:24.409Z,9.50
2023-01-07T15:21:58.397Z,9.40
2023-01-07T15:24:50.702Z,9.30
2023-01-07T15:27:56.249Z,9.20
2023-01-07T15:30:38.446Z,9.10
2023-01-07T15:33:20.690Z,9.00
2023-01-07T15:35:49.277Z,8.90
2023-01-07T15:38:35.413Z,8.80
2023-01-07T15:41:02.840Z,8.70
2023-01-07T15:43:31.297Z,8.60
2023-01-07T15:46:05.157Z,8.50
2023-01-07T15:48:32.533Z,8.30
2023-01-07T15:51:02.865Z,8.20
2023-01-07T15:53:30.341Z,8.20
2023-01-07T15:56:05.223Z,8.10
2023-01-07T15:58:41.369Z,8.00
2023-01-07T16:01:24.787Z,7.90
2023-01-07T16:03:55.565Z,7.80
2023-01-07T16:06:31.810Z,7.80
2023-01-07T16:09:01.687Z,7.70
2023-01-07T16:11:31.128Z,7.60
2023-01-07T16:14:00.149Z,7.50
2023-01-07T16:16:30.007Z,7.40
2023-01-07T16:19:02.504Z,7.30
2023-01-07T16:21:38.955Z,7.20
2023-01-07T16:24:06.603Z,7.20
2023-01-07T16:26:59.217Z,7.10
2023-01-07T16:29:52.338Z,7.00
2023-01-07T16:32:22.139Z,6.90
2023-01-07T16:34:55.577Z,6.80
2023-01-07T16:37:23.066Z,6.70
2023-01-07T16:39:52.045Z,6.60
2023-01-07T16:42:23.128Z,6.60
2023-01-07T16:44:53.080Z,6.60
2023-01-07T16:47:34.097Z,6.50
2023-01-07T16:50:13.591Z,6.50
2023-01-07T16:52:55.319Z,6.40
2023-01-07T16:56:06.546Z,6.30
2023-01-07T16:58:55.372Z,6.20
2023-01-07T17:01:34.755Z,6.10
2023-01-07T17:04:08.030Z,6.10
2023-01-07T17:06:41.462Z,5.90
2023-01-07T17:09:24.578Z,5.90
2023-01-07T17:11:53.097Z,5.80
2023-01-07T17:14:38.113Z,5.80
2023-01-07T17:17:26.546Z,5.70
2023-01-07T17:19:59.207Z,5.60
2023-01-07T17:22:34.698Z,5.50
2023-01-07T17:25:12.464Z,5.50
2023-01-07T17:27:49.679Z,5.40
2023-01-07T17:30:21.610Z,5.40
2023-01-07T17:32:53.045Z,5.30
2023-01-07T17:35:22.656Z,5.30
2023-01-07T17:37:50.976Z,5.30
2023-01-07T17:40:19.050Z,5.30
2023-01-07T17:43:07.128Z,5.30
2023-01-07T17:45:34.392Z,5.20
2023-01-07T17:48:01.622Z,5.20
2023-01-07T17:50:35.521Z,5.20
2023-01-07T17:53:03.064Z,5.20
2023-01-07T17:55:34.175Z,5.20
2023-01-07T17:58:01.356Z,5.20
2023-01-07T18:00:33.092Z,5.10
2023-01-07T18:03:00.325Z,5.00
2023-01-07T18:05:27.538Z,4.90
2023-01-07T18:07:54.724Z,4.90
2023-01-07T18:10:28.359Z,4.80
2023-01-07T18:12:55.563Z,4.70
2023-01-07T18:15:25.519Z,4.60
2023-01-07T18:17:52.748Z,4.60
2023-01-07T18:20:21.529Z,4.60
2023-01-07T18:22:49.779Z,4.60
2023-01-07T18:25:22.295Z,4.50
2023-01-07T18:27:52.663Z,4.50
2023-01-07T18:30:21.813Z,4.50
2023-01-07T18:32:51.168Z,4.50
2023-01-07T18:35:19.104Z,4.40
2023-01-07T18:37:50.301Z,4.40
2023-01-07T18:40:18.412Z,4.40
2023-01-07T18:42:45.688Z,4.30
2023-01-07T18:45:13.760Z,4.20
2023-01-07T18:47:42.816Z,4.10
2023-01-07T18:50:10.098Z,4.00
2023-01-07T18:52:41.289Z,3.90
2023-01-07T18:55:10.275Z,3.90
2023-01-07T18:57:37.765Z,3.80
2023-01-07T19:00:06.217Z,3.70
2023-01-07T19:02:33.789Z,3.70
2023-01-07T19:05:01.002Z,3.70
2023-01-07T19:07:30.168Z,3.70
2023-01-07T19:09:57.540Z,3.80
2023-01-07T19:12:24.781Z,3.80
2023-01-07T19:14:51.961Z,3.70
2023-01-07T19:17:19.179Z,3.70
2023-01-07T19:19:48.646Z,3.60
2023-01-07T19:22:17.331Z,3.60
2023-01-07T19:24:44.881Z,3.50
2023-01-07T19:27:12.340Z,3.50
2023-01-07T19:29:39.515Z,3.50
2023-01-07T19:32:06.935Z,3.50
2023-01-07T19:34:34.107Z,3.40
2023-01-07T19:37:01.286Z,3.40
2023-01-07T19:39:28.499Z,3.30
2023-01-07T19:41:55.680Z,3.30
2023-01-07T19:44:22.856Z,3.30
2023-01-07T19:46:50.191Z,3.30
2023-01-07T19:49:17.672Z,3.30
2023-01-07T19:51:44.948Z,3.30
2023-01-07T19:54:15.860Z,3.30
2023-01-07T19:56:45.981Z,3.40
2023-01-07T19:59:13.269Z,3.30
2023-01-07T20:01:40.529Z,3.30
2023-01-07T20:04:08.581Z,3.30
2023-01-07T20:06:38.874Z,3.30
2023-01-07T20:09:10.724Z,3.30
2023-01-07T20:11:39.244Z,3.20
2023-01-07T20:14:10.476Z,3.10
2023-01-07T20:16:39.473Z,3.10
2023-01-07T20:19:07.547Z,3.10
2023-01-07T20:21:34.874Z,3.10
2023-01-07T20:24:04.086Z,3.10
2023-01-07T20:26:32.814Z,3.10
2023-01-07T20:29:00.587Z,3.00
2023-01-07T20:31:30.347Z,3.10
2023-01-07T20:33:58.221Z,3.10
2023-01-07T20:36:28.657Z,3.20
2023-01-07T20:38:56.079Z,3.00
2023-01-07T20:41:26.126Z,3.00
2023-01-07T20:43:56.495Z,2.90
2023-01-07T20:46:24.717Z,2.90
2023-01-07T20:48:52.824Z,2.90
2023-01-07T20:51:20.054Z,2.90
2023-01-07T20:53:47.577Z,2.90
2023-01-07T20:56:20.194Z,2.80
2023-01-07T20:58:48.252Z,2.80
2023-01-07T21:01:18.507Z,2.80
2023-01-07T21:03:46.136Z,2.80
2023-01-07T21:06:17.402Z,2.80
2023-01-07T21:08:46.664Z,2.80
2023-01-07T21:11:16.068Z,2.80
2023-01-07T21:13:43.382Z,2.70
2023-01-07T21:16:11.131Z,2.70
2023-01-07T21:18:38.376Z,2.70
2023-01-07T21:21:11.924Z,2.70
2023-01-07T21:23:39.675Z,2.70
2023-01-07T21:26:08.243Z,2.70
2023-01-07T21:28:35.510Z,2.60
2023-01-07T21:31:08.957Z,2.60
2023-01-07T21:33:37.207Z,2.50
2023-01-07T21:36:15.392Z,2.50
2023-01-07T21:38:43.274Z,2.50
2023-01-07T21:41:13.790Z,2.40
2023-01-07T21:43:41.547Z,2.40
2023-01-07T21:46:09.246Z,2.40
2023-01-07T21:48:38.990Z,2.50
2023-01-07T21:51:26.022Z,2.50
2023-01-07T21:53:55.900Z,2.50
2023-01-07T21:56:24.594Z,2.50
2023-01-07T21:58:52.360Z,2.40
2023-01-07T22:01:20.217Z,2.40
2023-01-07T22:03:49.103Z,2.40
2023-01-07T22:06:25.612Z,2.40
2023-01-07T22:09:04.975Z,2.40
2023-01-07T22:11:34.320Z,2.40
2023-01-07T22:14:02.030Z,2.50
2023-01-07T22:16:30.980Z,2.50
2023-01-07T22:18:59.077Z,2.50
2023-01-07T22:21:26.746Z,2.60
2023-01-07T22:23:53.956Z,2.60
2023-01-07T22:26:24.039Z,2.60
2023-01-07T22:28:57.204Z,2.60
2023-01-07T22:31:30.165Z,2.60
2023-01-07T22:33:57.807Z,2.60
2023-01-07T22:36:45.287Z,2.60
2023-01-07T22:39:21.106Z,2.60
2023-01-07T22:41:49.724Z,2.60
2023-01-07T22:44:25.389Z,2.60
2023-01-07T22:46:53.353Z,2.60
2023-01-07T22:49:24.059Z,2.50
2023-01-07T22:51:51.524Z,2.50
2023-01-07T22:54:19.118Z,2.50
2023-01-07T22:56:46.803Z,2.40
2023-01-07T22:59:14.049Z,2.40
2023-01-07T23:01:41.398Z,2.30
2023-01-07T23:04:09.351Z,2.30
2023-01-07T23:06:36.553Z,2.30
2023-01-07T23:09:03.883Z,2.30
2023-01-07T23:11:47.500Z,2.30
2023-01-07T23:14:15.926Z,2.30
2023-01-07T23:16:43.428Z,2.30
2023-01-07T23:19:11.320Z,2.30
2023-01-07T23:21:43.517Z,2.20
2023-01-07T23:24:12.166Z,2.20
2023-01-07T23:26:40.400Z,2.20
2023-01-07T23:29:07.819Z,2.20
2023-01-07T23:31:36.283Z,2.20
2023-01-07T23:34:04.082Z,2.10
2023-01-07T23:36:31.510Z,2.10
2023-01-07T23:38:58.703Z,2.00
2023-01-07T23:41:25.914Z,2.00
2023-01-07T23:43:53.183Z,2.00
2023-01-07T23:46:20.380Z,2.00
2023-01-07T23:48:47.674Z,2.00
2023-01-07T23:51:20.061Z,2.00
2023-01-07T23:53:47.910Z,2.00
2023-01-07T23:56:18.464Z,1.90
2023-01-07T23:58:46.050Z,1.90
